Omak, WA

5:47 PM PDT on July 07, 2015 (GMT -0700)
Omak | | Change Station
CLOSE
Current Station
Airport
Location: Omak,
Elevation: 1302 ft
Nearby Weather Stations

Elev 1302 ft 48.46 °N, 119.52 °W | Updated 54 minutes ago

Clear
Clear
97 °F
Feels Like 97 °F
N
9
Wind Variable Wind from NNE

Today
High -- | Low -- °F
--% Chance of Precip.
Yesterday
High -- | Low -- °F
Precip. -- in
5:04 AM 9:00 PM
Waning Gibbous, 59% visible
Pressure 29.77 in
Visibility 5.0 miles
Clouds Clear
Dew Point 40 °F
Humidity 14%
Rainfall 0.00 in
Snow Depth Not available.
UV 5 out of 12
Pollen 5.20 out of 12
Air Quality Not available.
Flu Activity Not available.
METAR KOMK 072353Z AUTO 02008KT 5SM HZ CLR 36/04 A2980 RMK AO2 SLP080 T03610044 10372 20311 56017

More Conditions Fewer Conditions

Pressure 29.77 in
Visibility 5.0 miles
Clouds Clear
Dew Point 40 °F
Humidity 14%
Rainfall 0.00 in
Snow Depth Not available.
UV 5 out of 12
Pollen 5.20 out of 12
Air Quality Not available.
Flu Activity Not available.
METAR KOMK 072353Z AUTO 02008KT 5SM HZ CLR 36/04 A2980 RMK AO2 SLP080 T03610044 10372 20311 56017

More Conditions Fewer Conditions

Nowcast | as of 5:09 PM PDT on July 7, 2015

Through 7 PM...expect scattered showers with embedded thunderstorms to slowly drift south this evening. The strongest storms will produce brief heavy rains with possible flood issues...but lightning and gusty outflow winds will be the main impacts. The areas of concern will be near the Entiat river toward Ardenvoir...Nespelem to Keller...Colville...Ruby and Priest Lake. The storms will gradually weaken through the evening hours.

×

10-Day Weather Forecast

×

Almanac

Astronomy

Jul. 07, 2015 Rise Set
Actual Time
Civil Twilight
Nautical Twilight
Astronomical Twilight
Moon
Length of Visible Light
Length of Day
Tomorrow will be .
, % of the Moon is Illuminated

Today's Extremes

State Highs State Lows

Community

WunderPhotos

Upload Photos

1,835,978 photos uploaded!

WunderBlogs® & News

Nearby

Air Quality

  Air Quality AQ Index Pollutant
Not available.

Snow Depth

Station Depth Elevation

Earthquake Activity

City Distance Mag. Time & Date
Minimum magnitude displayed is 2.5.

Coastal Water Temperatures

Place Temperature

Stations

Nearby Weather Stations

Station Location Temp. Windchill Dew Point Humidity Wind Precip. Elev Updated Type